sensor_id;sensor_type;location;lat;lon;timestamp;temperature;humidity
30288;DHT22;17103;48.316;11.558;2022-10-16T00:02:01;21.00;52.20
30288;DHT22;17103;48.316;11.558;2022-10-16T00:04:27;21.00;52.40
30288;DHT22;17103;48.316;11.558;2022-10-16T00:06:52;20.90;52.30
30288;DHT22;17103;48.316;11.558;2022-10-16T00:09:18;20.90;52.40
30288;DHT22;17103;48.316;11.558;2022-10-16T00:11:43;20.90;52.40
30288;DHT22;17103;48.316;11.558;2022-10-16T00:14:12;20.90;52.50
30288;DHT22;17103;48.316;11.558;2022-10-16T00:16:38;20.90;52.50
30288;DHT22;17103;48.316;11.558;2022-10-16T00:19:04;20.90;52.50
30288;DHT22;17103;48.316;11.558;2022-10-16T00:21:31;20.90;52.50
30288;DHT22;17103;48.316;11.558;2022-10-16T00:24:02;20.90;52.50
30288;DHT22;17103;48.316;11.558;2022-10-16T00:26:31;20.90;52.50
30288;DHT22;17103;48.316;11.558;2022-10-16T00:28:57;20.90;52.50
30288;DHT22;17103;48.316;11.558;2022-10-16T00:31:23;20.90;52.50
30288;DHT22;17103;48.316;11.558;2022-10-16T00:33:50;20.90;52.50
30288;DHT22;17103;48.316;11.558;2022-10-16T00:36:18;20.90;52.40
30288;DHT22;17103;48.316;11.558;2022-10-16T00:38:44;20.90;52.40
30288;DHT22;17103;48.316;11.558;2022-10-16T00:41:12;20.90;52.40
30288;DHT22;17103;48.316;11.558;2022-10-16T00:43:49;20.90;52.40
30288;DHT22;17103;48.316;11.558;2022-10-16T00:46:27;20.90;52.40
30288;DHT22;17103;48.316;11.558;2022-10-16T00:49:05;20.90;52.40
30288;DHT22;17103;48.316;11.558;2022-10-16T00:51:34;20.90;52.40
30288;DHT22;17103;48.316;11.558;2022-10-16T00:54:02;20.90;52.30
30288;DHT22;17103;48.316;11.558;2022-10-16T00:56:29;20.80;52.20
30288;DHT22;17103;48.316;11.558;2022-10-16T00:58:54;20.80;52.30
30288;DHT22;17103;48.316;11.558;2022-10-16T01:01:20;20.80;52.40
30288;DHT22;17103;48.316;11.558;2022-10-16T01:03:46;20.70;52.30
30288;DHT22;17103;48.316;11.558;2022-10-16T01:06:28;20.80;52.50
30288;DHT22;17103;48.316;11.558;2022-10-16T01:11:28;20.70;52.30
30288;DHT22;17103;48.316;11.558;2022-10-16T01:14:00;20.70;52.40
30288;DHT22;17103;48.316;11.558;2022-10-16T01:17:18;20.80;52.50
30288;DHT22;17103;48.316;11.558;2022-10-16T01:19:57;20.70;52.30
30288;DHT22;17103;48.316;11.558;2022-10-16T01:23:21;20.80;52.40
30288;DHT22;17103;48.316;11.558;2022-10-16T01:31:22;20.70;52.30
30288;DHT22;17103;48.316;11.558;2022-10-16T01:34:10;20.70;52.90
30288;DHT22;17103;48.316;11.558;2022-10-16T01:36:42;20.60;52.30
30288;DHT22;17103;48.316;11.558;2022-10-16T01:39:11;20.60;52.40
30288;DHT22;17103;48.316;11.558;2022-10-16T01:41:43;20.60;52.50
30288;DHT22;17103;48.316;11.558;2022-10-16T01:44:22;20.50;52.40
30288;DHT22;17103;48.316;11.558;2022-10-16T01:46:52;20.50;52.60
30288;DHT22;17103;48.316;11.558;2022-10-16T01:49:21;20.50;52.40
30288;DHT22;17103;48.316;11.558;2022-10-16T01:51:54;20.50;52.40
30288;DHT22;17103;48.316;11.558;2022-10-16T01:54:23;20.50;52.40
30288;DHT22;17103;48.316;11.558;2022-10-16T01:56:51;20.40;52.40
30288;DHT22;17103;48.316;11.558;2022-10-16T01:59:19;20.40;52.30
30288;DHT22;17103;48.316;11.558;2022-10-16T02:01:51;20.30;52.30
30288;DHT22;17103;48.316;11.558;2022-10-16T02:04:22;20.30;52.60
30288;DHT22;17103;48.316;11.558;2022-10-16T02:06:50;20.20;52.70
30288;DHT22;17103;48.316;11.558;2022-10-16T02:09:15;20.20;52.90
30288;DHT22;17103;48.316;11.558;2022-10-16T02:11:43;20.10;53.10
30288;DHT22;17103;48.316;11.558;2022-10-16T02:14:09;20.10;53.20
30288;DHT22;17103;48.316;11.558;2022-10-16T02:19:00;20.10;53.40
30288;DHT22;17103;48.316;11.558;2022-10-16T02:21:29;20.00;53.40
30288;DHT22;17103;48.316;11.558;2022-10-16T02:24:25;20.00;53.50
30288;DHT22;17103;48.316;11.558;2022-10-16T02:29:53;20.10;53.70
30288;DHT22;17103;48.316;11.558;2022-10-16T02:32:25;20.00;53.50
30288;DHT22;17103;48.316;11.558;2022-10-16T02:34:53;20.10;53.50
30288;DHT22;17103;48.316;11.558;2022-10-16T02:37:19;20.10;53.50
30288;DHT22;17103;48.316;11.558;2022-10-16T02:39:46;20.10;53.50
30288;DHT22;17103;48.316;11.558;2022-10-16T02:42:13;20.10;53.60
30288;DHT22;17103;48.316;11.558;2022-10-16T02:44:39;20.10;53.50
30288;DHT22;17103;48.316;11.558;2022-10-16T02:47:05;20.10;53.40
30288;DHT22;17103;48.316;11.558;2022-10-16T02:49:31;20.20;53.50
30288;DHT22;17103;48.316;11.558;2022-10-16T02:51:57;20.20;53.40
30288;DHT22;17103;48.316;11.558;2022-10-16T02:54:22;20.20;53.30
30288;DHT22;17103;48.316;11.558;2022-10-16T02:56:49;20.30;53.40
30288;DHT22;17103;48.316;11.558;2022-10-16T02:59:14;20.20;53.20
30288;DHT22;17103;48.316;11.558;2022-10-16T03:01:40;20.20;53.20
30288;DHT22;17103;48.316;11.558;2022-10-16T03:04:06;20.30;53.20
30288;DHT22;17103;48.316;11.558;2022-10-16T03:06:31;20.30;53.10
30288;DHT22;17103;48.316;11.558;2022-10-16T03:08:57;20.30;53.00
30288;DHT22;17103;48.316;11.558;2022-10-16T03:11:22;20.30;52.90
30288;DHT22;17103;48.316;11.558;2022-10-16T03:13:48;20.30;52.80
30288;DHT22;17103;48.316;11.558;2022-10-16T03:16:13;20.30;52.70
30288;DHT22;17103;48.316;11.558;2022-10-16T03:18:39;20.30;52.60
30288;DHT22;17103;48.316;11.558;2022-10-16T03:21:05;20.30;52.60
30288;DHT22;17103;48.316;11.558;2022-10-16T03:23:30;20.40;52.70
30288;DHT22;17103;48.316;11.558;2022-10-16T03:25:56;20.30;52.60
30288;DHT22;17103;48.316;11.558;2022-10-16T03:28:22;20.30;52.60
30288;DHT22;17103;48.316;11.558;2022-10-16T03:30:47;20.30;52.60
30288;DHT22;17103;48.316;11.558;2022-10-16T03:33:13;20.30;52.60
30288;DHT22;17103;48.316;11.558;2022-10-16T03:35:38;20.20;52.50
30288;DHT22;17103;48.316;11.558;2022-10-16T03:38:04;19.80;52.30
30288;DHT22;17103;48.316;11.558;2022-10-16T03:40:30;20.30;52.70
30288;DHT22;17103;48.316;11.558;2022-10-16T03:42:58;20.30;52.70
30288;DHT22;17103;48.316;11.558;2022-10-16T03:45:24;20.30;52.60
30288;DHT22;17103;48.316;11.558;2022-10-16T03:47:49;20.30;52.60
30288;DHT22;17103;48.316;11.558;2022-10-16T03:50:15;20.20;52.50
30288;DHT22;17103;48.316;11.558;2022-10-16T03:52:41;20.30;52.60
30288;DHT22;17103;48.316;11.558;2022-10-16T03:55:07;20.30;52.60
30288;DHT22;17103;48.316;11.558;2022-10-16T03:57:33;20.30;52.60
30288;DHT22;17103;48.316;11.558;2022-10-16T03:59:58;20.30;52.60
30288;DHT22;17103;48.316;11.558;2022-10-16T04:02:24;20.30;52.60
30288;DHT22;17103;48.316;11.558;2022-10-16T04:04:50;20.30;52.60
30288;DHT22;17103;48.316;11.558;2022-10-16T04:07:15;20.30;52.60
30288;DHT22;17103;48.316;11.558;2022-10-16T04:09:41;20.30;52.60
30288;DHT22;17103;48.316;11.558;2022-10-16T04:12:07;20.30;52.60
30288;DHT22;17103;48.316;11.558;2022-10-16T04:14:33;20.30;52.60
30288;DHT22;17103;48.316;11.558;2022-10-16T04:16:59;20.30;52.60
30288;DHT22;17103;48.316;11.558;2022-10-16T04:19:24;20.20;52.50
30288;DHT22;17103;48.316;11.558;2022-10-16T04:21:50;20.20;52.50
30288;DHT22;17103;48.316;11.558;2022-10-16T04:24:16;20.30;52.60
30288;DHT22;17103;48.316;11.558;2022-10-16T04:26:41;20.20;52.50
30288;DHT22;17103;48.316;11.558;2022-10-16T04:29:07;20.30;52.60
30288;DHT22;17103;48.316;11.558;2022-10-16T04:31:34;20.30;52.60
30288;DHT22;17103;48.316;11.558;2022-10-16T04:33:59;20.30;52.60
30288;DHT22;17103;48.316;11.558;2022-10-16T04:36:25;20.30;52.60
30288;DHT22;17103;48.316;11.558;2022-10-16T04:38:50;20.30;52.60
30288;DHT22;17103;48.316;11.558;2022-10-16T04:41:16;20.30;52.60
30288;DHT22;17103;48.316;11.558;2022-10-16T04:43:42;20.30;52.60
30288;DHT22;17103;48.316;11.558;2022-10-16T04:46:07;20.30;52.60
30288;DHT22;17103;48.316;11.558;2022-10-16T04:48:33;20.30;52.60
30288;DHT22;17103;48.316;11.558;2022-10-16T04:50:59;20.30;52.60
30288;DHT22;17103;48.316;11.558;2022-10-16T04:53:25;20.30;52.60
30288;DHT22;17103;48.316;11.558;2022-10-16T04:55:51;20.30;52.50
30288;DHT22;17103;48.316;11.558;2022-10-16T04:58:17;20.30;53.00
30288;DHT22;17103;48.316;11.558;2022-10-16T05:00:44;20.40;52.50
30288;DHT22;17103;48.316;11.558;2022-10-16T05:03:09;20.40;52.50
30288;DHT22;17103;48.316;11.558;2022-10-16T05:05:36;20.40;52.50
30288;DHT22;17103;48.316;11.558;2022-10-16T05:08:02;20.40;52.50
30288;DHT22;17103;48.316;11.558;2022-10-16T05:10:28;20.40;52.50
30288;DHT22;17103;48.316;11.558;2022-10-16T05:12:53;20.40;52.50
30288;DHT22;17103;48.316;11.558;2022-10-16T05:15:19;20.30;52.40
30288;DHT22;17103;48.316;11.558;2022-10-16T05:17:45;20.40;52.40
30288;DHT22;17103;48.316;11.558;2022-10-16T05:20:12;20.40;52.30
30288;DHT22;17103;48.316;11.558;2022-10-16T05:22:38;20.40;52.30
30288;DHT22;17103;48.316;11.558;2022-10-16T05:25:04;20.40;52.30
30288;DHT22;17103;48.316;11.558;2022-10-16T05:27:30;20.50;52.30
30288;DHT22;17103;48.316;11.558;2022-10-16T05:29:56;20.50;52.20
30288;DHT22;17103;48.316;11.558;2022-10-16T05:32:21;20.50;52.20
30288;DHT22;17103;48.316;11.558;2022-10-16T05:34:47;20.50;52.20
30288;DHT22;17103;48.316;11.558;2022-10-16T05:37:12;20.50;52.20
30288;DHT22;17103;48.316;11.558;2022-10-16T05:39:39;20.50;52.10
30288;DHT22;17103;48.316;11.558;2022-10-16T05:42:05;20.50;52.10
30288;DHT22;17103;48.316;11.558;2022-10-16T05:44:31;20.50;52.10
30288;DHT22;17103;48.316;11.558;2022-10-16T05:46:57;20.50;52.00
30288;DHT22;17103;48.316;11.558;2022-10-16T05:49:23;20.50;52.00
30288;DHT22;17103;48.316;11.558;2022-10-16T05:51:49;20.50;52.20
30288;DHT22;17103;48.316;11.558;2022-10-16T05:54:14;20.50;51.90
30288;DHT22;17103;48.316;11.558;2022-10-16T05:56:40;20.50;51.90
30288;DHT22;17103;48.316;11.558;2022-10-16T05:59:06;20.50;51.90
30288;DHT22;17103;48.316;11.558;2022-10-16T06:01:32;20.50;51.90
30288;DHT22;17103;48.316;11.558;2022-10-16T06:03:58;20.50;51.90
30288;DHT22;17103;48.316;11.558;2022-10-16T06:06:26;20.50;51.90
30288;DHT22;17103;48.316;11.558;2022-10-16T06:08:54;20.50;51.90
30288;DHT22;17103;48.316;11.558;2022-10-16T06:11:26;20.50;52.40
30288;DHT22;17103;48.316;11.558;2022-10-16T06:13:57;20.50;51.80
30288;DHT22;17103;48.316;11.558;2022-10-16T06:16:24;20.50;51.70
30288;DHT22;17103;48.316;11.558;2022-10-16T06:18:54;20.50;51.70
30288;DHT22;17103;48.316;11.558;2022-10-16T06:21:23;20.50;51.60
30288;DHT22;17103;48.316;11.558;2022-10-16T06:23:53;20.50;51.60
30288;DHT22;17103;48.316;11.558;2022-10-16T06:26:21;20.50;51.60
30288;DHT22;17103;48.316;11.558;2022-10-16T06:28:48;20.50;51.30
30288;DHT22;17103;48.316;11.558;2022-10-16T06:31:15;20.50;51.10
30288;DHT22;17103;48.316;11.558;2022-10-16T06:33:41;20.50;50.90
30288;DHT22;17103;48.316;11.558;2022-10-16T06:36:09;20.50;50.80
30288;DHT22;17103;48.316;11.558;2022-10-16T06:38:36;20.40;50.70
30288;DHT22;17103;48.316;11.558;2022-10-16T06:41:03;20.30;50.80
30288;DHT22;17103;48.316;11.558;2022-10-16T06:43:29;20.20;50.70
30288;DHT22;17103;48.316;11.558;2022-10-16T06:45:59;20.10;50.80
30288;DHT22;17103;48.316;11.558;2022-10-16T06:48:25;20.00;50.80
30288;DHT22;17103;48.316;11.558;2022-10-16T06:51:06;20.00;51.00
30288;DHT22;17103;48.316;11.558;2022-10-16T06:53:34;19.80;51.10
30288;DHT22;17103;48.316;11.558;2022-10-16T06:58:32;19.60;51.40
30288;DHT22;17103;48.316;11.558;2022-10-16T07:00:58;19.60;51.50
30288;DHT22;17103;48.316;11.558;2022-10-16T07:03:24;19.50;51.60
30288;DHT22;17103;48.316;11.558;2022-10-16T07:05:49;19.40;51.70
30288;DHT22;17103;48.316;11.558;2022-10-16T07:08:15;19.40;51.90
30288;DHT22;17103;48.316;11.558;2022-10-16T07:10:41;19.30;52.10
30288;DHT22;17103;48.316;11.558;2022-10-16T07:13:06;19.30;52.30
30288;DHT22;17103;48.316;11.558;2022-10-16T07:15:33;19.20;52.50
30288;DHT22;17103;48.316;11.558;2022-10-16T07:17:59;19.20;52.70
30288;DHT22;17103;48.316;11.558;2022-10-16T07:20:25;19.20;52.90
30288;DHT22;17103;48.316;11.558;2022-10-16T07:22:51;19.20;53.10
30288;DHT22;17103;48.316;11.558;2022-10-16T07:25:17;19.20;53.30
30288;DHT22;17103;48.316;11.558;2022-10-16T07:27:42;19.20;53.50
30288;DHT22;17103;48.316;11.558;2022-10-16T07:30:08;19.20;53.60
30288;DHT22;17103;48.316;11.558;2022-10-16T07:32:34;19.20;53.70
30288;DHT22;17103;48.316;11.558;2022-10-16T07:34:59;19.40;54.00
30288;DHT22;17103;48.316;11.558;2022-10-16T07:37:25;19.30;53.90
30288;DHT22;17103;48.316;11.558;2022-10-16T07:39:50;19.30;53.90
30288;DHT22;17103;48.316;11.558;2022-10-16T07:42:17;19.30;53.90
30288;DHT22;17103;48.316;11.558;2022-10-16T07:44:43;19.30;54.00
30288;DHT22;17103;48.316;11.558;2022-10-16T07:47:09;19.30;54.10
30288;DHT22;17103;48.316;11.558;2022-10-16T07:49:34;19.40;54.20
30288;DHT22;17103;48.316;11.558;2022-10-16T07:52:00;19.40;54.40
30288;DHT22;17103;48.316;11.558;2022-10-16T07:54:25;19.40;54.50
30288;DHT22;17103;48.316;11.558;2022-10-16T07:56:51;19.40;54.60
30288;DHT22;17103;48.316;11.558;2022-10-16T07:59:17;19.50;54.50
30288;DHT22;17103;48.316;11.558;2022-10-16T08:01:42;19.50;54.50
30288;DHT22;17103;48.316;11.558;2022-10-16T08:04:09;19.60;54.70
30288;DHT22;17103;48.316;11.558;2022-10-16T08:06:37;19.60;54.80
30288;DHT22;17103;48.316;11.558;2022-10-16T08:09:03;19.70;54.90
30288;DHT22;17103;48.316;11.558;2022-10-16T08:11:29;19.70;55.00
30288;DHT22;17103;48.316;11.558;2022-10-16T08:13:54;19.80;55.00
30288;DHT22;17103;48.316;11.558;2022-10-16T08:16:20;19.80;54.90
30288;DHT22;17103;48.316;11.558;2022-10-16T08:18:46;19.90;54.90
30288;DHT22;17103;48.316;11.558;2022-10-16T08:21:14;19.90;54.70
30288;DHT22;17103;48.316;11.558;2022-10-16T08:23:40;20.00;54.60
30288;DHT22;17103;48.316;11.558;2022-10-16T08:26:07;20.10;54.50
30288;DHT22;17103;48.316;11.558;2022-10-16T08:28:33;20.10;54.60
30288;DHT22;17103;48.316;11.558;2022-10-16T08:31:13;20.10;54.70
30288;DHT22;17103;48.316;11.558;2022-10-16T08:33:42;20.20;54.80
30288;DHT22;17103;48.316;11.558;2022-10-16T08:36:10;20.20;54.90
30288;DHT22;17103;48.316;11.558;2022-10-16T08:38:36;20.30;54.80
30288;DHT22;17103;48.316;11.558;2022-10-16T08:46:19;20.50;54.70
30288;DHT22;17103;48.316;11.558;2022-10-16T08:48:53;20.50;54.30
30288;DHT22;17103;48.316;11.558;2022-10-16T08:51:23;20.60;54.90
30288;DHT22;17103;48.316;11.558;2022-10-16T08:53:56;20.60;54.60
30288;DHT22;17103;48.316;11.558;2022-10-16T08:56:22;20.70;54.80
30288;DHT22;17103;48.316;11.558;2022-10-16T08:58:49;20.70;54.80
30288;DHT22;17103;48.316;11.558;2022-10-16T09:01:17;20.80;54.90
30288;DHT22;17103;48.316;11.558;2022-10-16T09:06:26;21.00;54.80
30288;DHT22;17103;48.316;11.558;2022-10-16T09:09:20;21.10;55.10
30288;DHT22;17103;48.316;11.558;2022-10-16T09:14:40;21.30;55.00
30288;DHT22;17103;48.316;11.558;2022-10-16T09:22:39;21.70;54.60
30288;DHT22;17103;48.316;11.558;2022-10-16T09:25:12;21.80;54.60
30288;DHT22;17103;48.316;11.558;2022-10-16T09:27:38;21.90;54.20
30288;DHT22;17103;48.316;11.558;2022-10-16T09:30:14;22.00;54.00
30288;DHT22;17103;48.316;11.558;2022-10-16T09:32:42;22.20;53.80
30288;DHT22;17103;48.316;11.558;2022-10-16T09:35:18;22.20;53.80
30288;DHT22;17103;48.316;11.558;2022-10-16T09:37:49;22.30;53.70
30288;DHT22;17103;48.316;11.558;2022-10-16T09:43:22;22.50;53.50
30288;DHT22;17103;48.316;11.558;2022-10-16T09:45:58;22.60;53.80
30288;DHT22;17103;48.316;11.558;2022-10-16T09:48:31;22.70;53.60
30288;DHT22;17103;48.316;11.558;2022-10-16T09:51:01;22.80;53.50
30288;DHT22;17103;48.316;11.558;2022-10-16T09:53:45;22.90;53.00
30288;DHT22;17103;48.316;11.558;2022-10-16T09:56:20;23.00;52.90
30288;DHT22;17103;48.316;11.558;2022-10-16T09:58:50;23.10;53.00
30288;DHT22;17103;48.316;11.558;2022-10-16T10:01:18;23.20;52.20
30288;DHT22;17103;48.316;11.558;2022-10-16T10:03:45;23.00;52.20
30288;DHT22;17103;48.316;11.558;2022-10-16T10:06:36;23.40;52.70
30288;DHT22;17103;48.316;11.558;2022-10-16T10:11:57;23.60;53.30
30288;DHT22;17103;48.316;11.558;2022-10-16T10:14:35;23.70;52.90
30288;DHT22;17103;48.316;11.558;2022-10-16T10:19:54;24.00;52.60
30288;DHT22;17103;48.316;11.558;2022-10-16T10:22:42;24.00;52.00
30288;DHT22;17103;48.316;11.558;2022-10-16T10:30:25;24.40;51.90
30288;DHT22;17103;48.316;11.558;2022-10-16T10:41:23;24.80;49.40
30288;DHT22;17103;48.316;11.558;2022-10-16T10:46:37;25.00;49.50
30288;DHT22;17103;48.316;11.558;2022-10-16T10:52:13;25.20;47.30
30288;DHT22;17103;48.316;11.558;2022-10-16T10:57:36;25.40;48.50
30288;DHT22;17103;48.316;11.558;2022-10-16T11:00:40;25.50;47.50
30288;DHT22;17103;48.316;11.558;2022-10-16T11:03:35;25.60;47.00
30288;DHT22;17103;48.316;11.558;2022-10-16T11:11:29;26.00;46.50
30288;DHT22;17103;48.316;11.558;2022-10-16T11:14:14;26.10;45.20
30288;DHT22;17103;48.316;11.558;2022-10-16T11:16:53;26.20;45.50
30288;DHT22;17103;48.316;11.558;2022-10-16T11:19:49;26.20;44.70
30288;DHT22;17103;48.316;11.558;2022-10-16T11:22:36;26.30;43.60
30288;DHT22;17103;48.316;11.558;2022-10-16T11:25:12;26.30;43.20
30288;DHT22;17103;48.316;11.558;2022-10-16T11:27:54;26.30;41.70
30288;DHT22;17103;48.316;11.558;2022-10-16T11:30:27;26.30;43.00
30288;DHT22;17103;48.316;11.558;2022-10-16T11:35:44;26.40;41.40
30288;DHT22;17103;48.316;11.558;2022-10-16T11:38:29;26.40;41.00
30288;DHT22;17103;48.316;11.558;2022-10-16T11:41:18;26.40;40.10
30288;DHT22;17103;48.316;11.558;2022-10-16T11:44:14;26.40;40.90
30288;DHT22;17103;48.316;11.558;2022-10-16T11:46:47;26.50;42.30
30288;DHT22;17103;48.316;11.558;2022-10-16T11:49:16;26.60;42.90
30288;DHT22;17103;48.316;11.558;2022-10-16T11:51:50;26.60;41.30
30288;DHT22;17103;48.316;11.558;2022-10-16T11:56:58;26.70;41.00
30288;DHT22;17103;48.316;11.558;2022-10-16T11:59:31;26.80;41.20
30288;DHT22;17103;48.316;11.558;2022-10-16T12:04:53;26.80;39.50
30288;DHT22;17103;48.316;11.558;2022-10-16T12:07:30;26.80;40.20
30288;DHT22;17103;48.316;11.558;2022-10-16T12:10:10;26.80;41.00
30288;DHT22;17103;48.316;11.558;2022-10-16T12:12:38;26.80;40.60
30288;DHT22;17103;48.316;11.558;2022-10-16T12:15:34;26.80;41.10
30288;DHT22;17103;48.316;11.558;2022-10-16T12:18:00;26.80;38.60
30288;DHT22;17103;48.316;11.558;2022-10-16T12:20:36;26.80;38.90
30288;DHT22;17103;48.316;11.558;2022-10-16T12:23:07;26.80;38.10
30288;DHT22;17103;48.316;11.558;2022-10-16T12:25:54;26.90;38.70
30288;DHT22;17103;48.316;11.558;2022-10-16T12:28:22;26.90;37.90
30288;DHT22;17103;48.316;11.558;2022-10-16T12:30:59;27.10;39.90
30288;DHT22;17103;48.316;11.558;2022-10-16T12:33:30;27.10;39.60
30288;DHT22;17103;48.316;11.558;2022-10-16T12:35:59;27.30;38.70
30288;DHT22;17103;48.316;11.558;2022-10-16T12:38:35;27.40;38.30
30288;DHT22;17103;48.316;11.558;2022-10-16T12:41:07;27.40;38.40
30288;DHT22;17103;48.316;11.558;2022-10-16T12:43:42;27.50;38.30
30288;DHT22;17103;48.316;11.558;2022-10-16T12:48:34;27.50;39.60
30288;DHT22;17103;48.316;11.558;2022-10-16T12:54:02;27.50;39.40
30288;DHT22;17103;48.316;11.558;2022-10-16T13:08:20;27.90;42.30
30288;DHT22;17103;48.316;11.558;2022-10-16T13:10:53;28.10;40.00
30288;DHT22;17103;48.316;11.558;2022-10-16T13:13:38;28.20;41.80
30288;DHT22;17103;48.316;11.558;2022-10-16T13:21:55;28.70;40.90
30288;DHT22;17103;48.316;11.558;2022-10-16T13:29:41;29.10;39.90
30288;DHT22;17103;48.316;11.558;2022-10-16T13:32:10;29.30;40.30
30288;DHT22;17103;48.316;11.558;2022-10-16T13:34:47;29.40;38.90
30288;DHT22;17103;48.316;11.558;2022-10-16T13:37:22;29.50;36.20
30288;DHT22;17103;48.316;11.558;2022-10-16T13:39:48;29.50;38.60
30288;DHT22;17103;48.316;11.558;2022-10-16T13:42:27;29.60;39.00
30288;DHT22;17103;48.316;11.558;2022-10-16T13:44:54;29.70;37.60
30288;DHT22;17103;48.316;11.558;2022-10-16T13:47:24;29.70;38.40
30288;DHT22;17103;48.316;11.558;2022-10-16T13:50:12;29.80;38.70
30288;DHT22;17103;48.316;11.558;2022-10-16T13:52:38;29.90;37.00
30288;DHT22;17103;48.316;11.558;2022-10-16T13:55:13;30.00;37.70
30288;DHT22;17103;48.316;11.558;2022-10-16T13:57:40;30.10;37.40
30288;DHT22;17103;48.316;11.558;2022-10-16T14:00:21;30.10;38.10
30288;DHT22;17103;48.316;11.558;2022-10-16T14:02:55;30.20;36.40
30288;DHT22;17103;48.316;11.558;2022-10-16T14:05:23;30.30;36.60
30288;DHT22;17103;48.316;11.558;2022-10-16T14:07:50;30.30;36.40
30288;DHT22;17103;48.316;11.558;2022-10-16T14:10:26;30.40;36.60
30288;DHT22;17103;48.316;11.558;2022-10-16T14:13:17;30.40;36.90
30288;DHT22;17103;48.316;11.558;2022-10-16T14:15:47;30.50;36.10
30288;DHT22;17103;48.316;11.558;2022-10-16T14:18:19;30.50;36.10
30288;DHT22;17103;48.316;11.558;2022-10-16T14:20:45;30.60;35.50
30288;DHT22;17103;48.316;11.558;2022-10-16T14:23:30;30.60;35.90
30288;DHT22;17103;48.316;11.558;2022-10-16T14:28:35;30.60;37.60
30288;DHT22;17103;48.316;11.558;2022-10-16T14:31:13;30.70;36.80
30288;DHT22;17103;48.316;11.558;2022-10-16T14:33:45;30.70;36.60
30288;DHT22;17103;48.316;11.558;2022-10-16T14:36:14;30.70;37.80
30288;DHT22;17103;48.316;11.558;2022-10-16T14:38:42;30.80;37.50
30288;DHT22;17103;48.316;11.558;2022-10-16T14:41:09;30.80;37.90
30288;DHT22;17103;48.316;11.558;2022-10-16T14:43:38;30.80;38.80
30288;DHT22;17103;48.316;11.558;2022-10-16T14:46:17;30.90;38.50
30288;DHT22;17103;48.316;11.558;2022-10-16T14:48:46;30.90;38.20
30288;DHT22;17103;48.316;11.558;2022-10-16T14:51:17;30.90;39.00
30288;DHT22;17103;48.316;11.558;2022-10-16T14:53:44;30.90;39.10
30288;DHT22;17103;48.316;11.558;2022-10-16T14:56:22;31.00;40.00
30288;DHT22;17103;48.316;11.558;2022-10-16T14:58:50;31.00;39.10
30288;DHT22;17103;48.316;11.558;2022-10-16T15:01:17;31.00;39.10
30288;DHT22;17103;48.316;11.558;2022-10-16T15:03:43;31.00;39.50
30288;DHT22;17103;48.316;11.558;2022-10-16T15:06:11;31.00;38.90
30288;DHT22;17103;48.316;11.558;2022-10-16T15:08:37;31.00;38.90
30288;DHT22;17103;48.316;11.558;2022-10-16T15:11:03;31.00;39.10
30288;DHT22;17103;48.316;11.558;2022-10-16T15:13:29;30.90;39.10
30288;DHT22;17103;48.316;11.558;2022-10-16T15:15:56;30.90;38.70
30288;DHT22;17103;48.316;11.558;2022-10-16T15:18:21;30.80;38.30
30288;DHT22;17103;48.316;11.558;2022-10-16T15:20:49;30.70;38.70
30288;DHT22;17103;48.316;11.558;2022-10-16T15:23:17;30.60;38.60
30288;DHT22;17103;48.316;11.558;2022-10-16T15:25:45;30.60;38.60
30288;DHT22;17103;48.316;11.558;2022-10-16T15:28:12;30.50;39.10
30288;DHT22;17103;48.316;11.558;2022-10-16T15:30:40;30.80;39.60
30288;DHT22;17103;48.316;11.558;2022-10-16T15:33:12;30.40;39.60
30288;DHT22;17103;48.316;11.558;2022-10-16T15:35:39;30.30;39.20
30288;DHT22;17103;48.316;11.558;2022-10-16T15:38:04;30.30;39.00
30288;DHT22;17103;48.316;11.558;2022-10-16T15:40:50;30.20;39.00
30288;DHT22;17103;48.316;11.558;2022-10-16T15:43:16;30.20;39.10
30288;DHT22;17103;48.316;11.558;2022-10-16T15:45:42;30.10;39.10
30288;DHT22;17103;48.316;11.558;2022-10-16T15:48:12;30.10;39.10
30288;DHT22;17103;48.316;11.558;2022-10-16T15:50:39;30.00;39.20
30288;DHT22;17103;48.316;11.558;2022-10-16T15:53:05;29.90;39.10
30288;DHT22;17103;48.316;11.558;2022-10-16T15:55:31;29.90;39.40
30288;DHT22;17103;48.316;11.558;2022-10-16T15:57:56;29.80;38.70
30288;DHT22;17103;48.316;11.558;2022-10-16T16:00:22;29.70;38.80
30288;DHT22;17103;48.316;11.558;2022-10-16T16:02:52;29.60;38.80
30288;DHT22;17103;48.316;11.558;2022-10-16T16:05:19;29.50;38.70
30288;DHT22;17103;48.316;11.558;2022-10-16T16:07:44;29.50;38.70
30288;DHT22;17103;48.316;11.558;2022-10-16T16:10:11;29.30;38.60
30288;DHT22;17103;48.316;11.558;2022-10-16T16:12:40;29.30;38.50
30288;DHT22;17103;48.316;11.558;2022-10-16T16:15:07;29.20;38.60
30288;DHT22;17103;48.316;11.558;2022-10-16T16:17:34;29.10;38.60
30288;DHT22;17103;48.316;11.558;2022-10-16T16:20:00;29.00;38.80
30288;DHT22;17103;48.316;11.558;2022-10-16T16:22:27;28.90;38.70
30288;DHT22;17103;48.316;11.558;2022-10-16T16:24:53;28.70;38.70
30288;DHT22;17103;48.316;11.558;2022-10-16T16:27:19;28.70;38.70
30288;DHT22;17103;48.316;11.558;2022-10-16T16:29:46;28.50;38.70
30288;DHT22;17103;48.316;11.558;2022-10-16T16:32:12;28.40;38.70
30288;DHT22;17103;48.316;11.558;2022-10-16T16:34:38;28.30;39.00
30288;DHT22;17103;48.316;11.558;2022-10-16T16:37:03;28.20;39.00
30288;DHT22;17103;48.316;11.558;2022-10-16T16:39:29;28.10;39.00
30288;DHT22;17103;48.316;11.558;2022-10-16T16:41:57;28.00;39.10
30288;DHT22;17103;48.316;11.558;2022-10-16T16:44:28;27.90;39.10
30288;DHT22;17103;48.316;11.558;2022-10-16T16:46:53;27.80;39.30
30288;DHT22;17103;48.316;11.558;2022-10-16T16:49:20;27.70;39.30
30288;DHT22;17103;48.316;11.558;2022-10-16T16:51:46;27.60;39.30
30288;DHT22;17103;48.316;11.558;2022-10-16T16:54:11;27.50;39.40
30288;DHT22;17103;48.316;11.558;2022-10-16T16:56:38;27.40;39.50
30288;DHT22;17103;48.316;11.558;2022-10-16T16:59:04;27.30;39.50
30288;DHT22;17103;48.316;11.558;2022-10-16T17:01:31;27.20;39.60
30288;DHT22;17103;48.316;11.558;2022-10-16T17:03:57;27.20;39.70
30288;DHT22;17103;48.316;11.558;2022-10-16T17:06:27;27.10;39.80
30288;DHT22;17103;48.316;11.558;2022-10-16T17:08:54;27.00;39.80
30288;DHT22;17103;48.316;11.558;2022-10-16T17:11:23;26.90;39.90
30288;DHT22;17103;48.316;11.558;2022-10-16T17:13:50;26.80;40.00
30288;DHT22;17103;48.316;11.558;2022-10-16T17:16:16;26.70;40.00
30288;DHT22;17103;48.316;11.558;2022-10-16T17:18:42;26.70;40.20